Data for 07/21/2015

Time Sea-Level Adjusted Pressure Absolute Pressure Temperature Relative Humidity Dew Point   
(mb) (inHg) (mb) (inHg) (C) (F) (%) (C) (F)
00:05 1018 30.06 847 25.01 18.1 64.5 46 6.3 43.4
00:10 1018 30.06 847 25.01 17.6 63.6 50 7 44.7
00:15 1018 30.06 847 25.01 17.2 62.9 49 6.5 43.7
00:20 1018 30.06 847 25.01 17 62.6 48 6 42.9
00:25 1018 30.06 847 25.01 17.4 63.3 46 5.7 42.3
00:30 1018 30.06 847 25.01 17.6 63.6 47 6.2 43.1
00:35 1018 30.06 847 25.01 17.4 63.3 47 6.1 43
00:40 1018 30.06 847 25.01 17.5 63.4 48 6.3 43.4
00:45 1018 30.06 847 25.01 17.2 63 48 6.1 43
00:50 1018 30.06 847 25.01 17 62.7 49 6.3 43.3
00:55 1018 30.06 847 25.01 16.8 62.3 49 6.1 43
01:00 1018 30.06 847 25.01 16.7 62.1 49 5.9 42.7
01:05 1018 30.06 847 25.01 17.2 63 46 5.7 42.3
01:10 1018 30.06 847 25.01 17.3 63.1 55 8.4 47
01:15 1018 30.06 847 25.01 17 62.6 50 6.7 44.1
01:20 1018 30.06 847 25.01 16.9 62.5 48 6 42.7
01:25 1018 30.06 847 25.01 17 62.6 47 5.6 42.1
01:30 1018 30.06 847 25.01 17.1 62.9 47 5.7 42.3
01:35 1018 30.06 847 25.01 17 62.6 48 5.9 42.6
01:40 1018 30.06 847 25.01 16.7 62.1 49 5.9 42.7
01:45 1018 30.06 847 25.01 16.6 61.8 50 6.2 43.2
01:50 1018 30.06 847 25.01 16.3 61.3 50 5.9 42.7
01:55 1018 30.06 847 25.01 16.7 62 47 5.4 41.7
02:00 1018 30.06 847 25.01 17 62.7 47 5.7 42.2
02:05 1018 30.06 847 25.01 17 62.6 48 5.9 42.7
02:10 1018 30.06 847 25.01 16.6 61.8 49 5.8 42.5
02:20 1018 30.06 847 25.01 17 62.5 46 5.3 41.6
02:25 1018 30.06 847 25.01 17.1 62.7 48 6 42.8
02:30 1018 30.06 847 25.01 16.6 61.8 49 6.1 42.9
02:35 1018 30.06 847 25.01 16.1 61 51 6 42.9
02:40 1018 30.06 847 25.01 15.8 60.4 52 5.9 42.7
02:45 1018 30.06 847 25.01 15.8 60.4 50 5.6 42.1
02:50 1018 30.06 847 25.01 16 60.9 50 5.7 42.3
02:55 1018 30.06 847 25.01 15.9 60.6 51 5.8 42.4
03:00 1018 30.06 847 25.01 16.1 60.9 50 5.6 42.1
03:05 1018 30.06 847 25.01 16.4 61.6 48 5.6 42
03:10 1018 30.06 847 25.01 16.6 61.8 50 6.3 43.4
03:15 1018 30.06 847 25.01 15.6 60 52 5.9 42.7
03:20 1018 30.06 847 25.01 15.8 60.5 49 5.3 41.5
03:25 1018 30.06 847 25.01 16.5 61.6 48 5.5 42
03:30 1018 30.06 847 25.01 16.5 61.7 48 5.6 42
03:35 1018 30.06 847 25.01 16.7 62.1 47 5.6 42
03:40 1018 30.06 847 25.01 16.9 62.4 47 5.7 42.2
03:45 1018 30.06 847 25.01 16.7 62 48 5.8 42.4
03:50 1018 30.06 847 25.01 16.5 61.7 49 5.8 42.4
03:55 1018 30.06 847 25.01 16.3 61.4 50 6.1 43
04:00 1018 30.06 847 25.01 16 60.7 51 5.9 42.7
04:05 1018 30.06 847 25.01 15.5 59.9 52 5.8 42.5
04:10 1018 30.06 847 25.01 15.1 59.2 52 5.5 41.9
04:15 1018 30.06 847 25.01 14.7 58.5 54 5.6 42.1
04:20 1018 30.06 847 25.01 14.4 58 55 5.6 42.1
04:25 1018 30.06 847 25.01 14.4 57.9 56 5.8 42.5
04:30 1018 30.06 847 25.01 14.3 57.7 58 6.1 43
04:35 1018 30.06 847 25.01 14 57.2 54 5 41
04:40 1018 30.06 847 25.01 14.6 58.3 53 5.2 41.3
04:45 1018 30.06 848 25.04 14.8 58.7 53 5.5 42
04:50 1018 30.06 848 25.04 15 58.9 54 5.7 42.3
04:55 1018 30.06 848 25.04 14.9 58.7 55 6 42.8
05:00 1018 30.06 848 25.04 14.7 58.4 55 5.7 42.3
05:05 1018 30.06 848 25.04 14.6 58.3 54 5.5 41.9
05:10 1018 30.06 848 25.04 14.7 58.5 53 5.2 41.4
05:15 1018 30.06 848 25.04 15 58.9 52 5.4 41.7
05:20 1018 30.06 848 25.04 14.9 58.7 53 5.3 41.6
05:25 1018 30.06 848 25.04 14.7 58.4 53 5.3 41.6
05:30 1018 30.06 848 25.04 15.1 59.1 50 4.9 40.9
05:35 1019 30.09 848 25.04 15.3 59.6 51 5.3 41.6
05:40 1019 30.09 848 25.04 15.4 59.7 50 5.2 41.3
05:45 1019 30.09 848 25.04 15.6 60.2 50 5.3 41.5
05:50 1018 30.06 848 25.04 15.9 60.6 50 5.5 41.9
05:55 1019 30.09 848 25.04 15.9 60.7 50 5.8 42.4
06:00 1019 30.09 848 25.04 16.1 60.9 50 5.8 42.4
06:05 1019 30.09 848 25.04 16.3 61.3 50 5.9 42.5
06:10 1018 30.06 848 25.04 16.4 61.6 49 5.9 42.6
06:15 1018 30.06 848 25.04 16.6 61.8 50 6.3 43.4
06:20 1019 30.09 848 25.04 16.5 61.6 53 6.9 44.4
06:25 1019 30.09 848 25.04 16.5 61.6 51 6.4 43.5
06:30 1019 30.09 848 25.04 16.7 62.1 50 6.4 43.5
06:35 1019 30.09 848 25.04 16.9 62.4 56 8.3 46.9
06:40 1019 30.09 848 25.04 17 62.6 50 6.7 44.1
06:45 1019 30.09 848 25.04 17.1 62.7 51 7 44.7
06:50 1019 30.09 848 25.04 16.9 62.4 54 7.7 45.9
06:55 1019 30.09 848 25.04 17 62.5 52 7.3 45.1
07:00 1019 30.09 848 25.04 17.1 62.8 54 7.7 45.9
07:05 1019 30.09 848 25.04 17.1 62.8 54 7.8 46.1
07:10 1019 30.09 848 25.04 17.2 63 52 7.4 45.3
07:15 1019 30.09 848 25.04 17.3 63.1 54 8 46.5
07:20 1019 30.09 848 25.04 17.3 63.1 53 7.8 46
07:25 1019 30.09 848 25.04 17.9 64.2 50 7.5 45.6
07:30 1019 30.09 848 25.04 18 64.5 49 7.4 45.3
07:35 1019 30.09 848 25.04 18.7 65.6 48 7.6 45.6
07:40 1018 30.06 848 25.04 19.1 66.3 45 7.1 44.8
07:45 1018 30.06 847 25.01 19 66.2 44 6.6 43.8
07:50 1018 30.06 847 25.01 18.9 66.1 46 7.1 44.8
07:55 1018 30.06 847 25.01 18.9 66 47 7.4 45.4
08:00 1018 30.06 847 25.01 19 66.1 47 7.5 45.5
08:05 1018 30.06 847 25.01 19.2 66.6 47 7.6 45.8
08:10 1018 30.06 847 25.01 19.3 66.8 47 7.8 46
08:15 1018 30.06 847 25.01 19.3 66.8 45 7.2 45
08:20 1018 30.06 847 25.01 19.5 67.1 45 7.3 45.1
08:25 1018 30.06 847 25.01 20.3 68.5 42 7.2 44.9
08:30 1018 30.06 847 25.01 21 69.8 42 7.6 45.7
08:35 1018 30.06 847 25.01 20.8 69.4 44 8.2 46.8
08:40 1018 30.06 847 25.01 20.7 69.2 45 8.3 47
08:45 1018 30.06 847 25.01 21.5 70.7 38 7 44.5
08:50 1018 30.06 847 25.01 21.8 71.3 41 8.2 46.7
08:55 1018 30.06 847 25.01 22.5 72.6 35 6.6 43.9
09:00 1018 30.06 847 25.01 23.4 74 34 6.9 44.5
09:05 1018 30.06 847 25.01 24.2 75.6 30 5.8 42.5
09:10 1018 30.06 847 25.01 24.6 76.4 35 8.2 46.7
09:15 1018 30.06 847 25.01 23.8 74.8 31 6.1 43
09:20 1018 30.06 847 25.01 23.6 74.5 33 6.6 43.9
09:25 1018 30.06 847 25.01 22 71.6 41 8.5 47.3
09:30 1018 30.06 847 25.01 21.5 70.6 41 7.8 46.1
09:35 1018 30.06 847 25.01 22 71.6 37 6.7 44
09:40 1018 30.06 847 25.01 22.9 73.2 30 4.8 40.6
09:45 1018 30.06 847 25.01 23.2 73.8 33 6.2 43.1
09:50 1018 30.06 847 25.01 23.3 73.9 31 5.4 41.6
09:55 1018 30.06 847 25.01 23.6 74.5 31 5.5 41.9
10:00 1018 30.06 847 25.01 24.2 75.5 30 5.6 42
10:05 1017 30.03 847 25.01 24.2 75.6 27 4.5 40.1
10:10 1017 30.03 847 25.01 24.9 76.8 28 5.5 42
10:15 1017 30.03 847 25.01 25.6 78.1 24 4 39.1
10:20 1017 30.03 847 25.01 25.9 78.7 25 4.5 40.1
10:25 1017 30.03 847 25.01 26.3 79.3 23 4 39.3
10:30 1017 30.03 847 25.01 27.1 80.7 21 3.2 37.7
10:35 1017 30.03 846 24.98 26.1 79.1 23 3.8 38.9
10:40 1017 30.03 846 24.98 25.8 78.4 24 3.7 38.6
10:45 1017 30.03 846 24.98 26.8 80.2 21 3.2 37.8
10:50 1017 30.03 846 24.98 27.6 81.7 21 3.9 38.9
10:55 1017 30.03 846 24.98 27.6 81.6 22 4 39.2
11:00 1017 30.03 846 24.98 27.5 81.5 22 4 39.2
11:05 1017 30.03 846 24.98 27.3 81.1 21 3.2 37.8
11:10 1017 30.03 846 24.98 27.4 81.3 20 2.9 37.3
11:15 1016 30 846 24.98 28 82.3 18 2 35.6
11:20 1016 30 846 24.98 28.4 83.1 19 2.6 36.6
11:25 1016 30 845 24.95 28.1 82.5 18 2 35.5
11:30 1016 30 845 24.95 27.8 82 20 2.8 37
11:35 1016 30 845 24.95 27.4 81.3 21 3.1 37.7
11:40 1016 30 845 24.95 27.2 81 21 3 37.5
11:45 1016 30 845 24.95 27.7 81.9 20 3.2 37.8
11:50 1016 30 845 24.95 27.2 81 20 2.5 36.6
11:55 1016 30 845 24.95 27.8 82 19 2.1 35.9
12:00 1016 30 845 24.95 28.8 83.8 19 3.2 37.8
12:05 1016 30 845 24.95 29.2 84.6 18 2.9 37.3
12:10 1016 30 845 24.95 28.6 83.5 18 2.6 36.7
12:15 1015 29.97 845 24.95 28.7 83.6 19 2.8 37
12:20 1015 29.97 845 24.95 28.3 82.9 19 2.5 36.6
12:25 1015 29.97 844 24.92 28.8 83.8 18 2.3 36.1
12:30 1015 29.97 844 24.92 29.4 85 17 2.3 36.2
12:35 1015 29.97 844 24.92 28.8 83.8 17 2 35.6
12:40 1015 29.97 844 24.92 30.6 87 14 0.8 33.4
12:45 1015 29.97 844 24.92 30.5 86.9 15 1.7 35
12:50 1015 29.97 844 24.92 30.4 86.7 15 1.6 34.8
12:55 1015 29.97 844 24.92 30.1 86.1 16 1.6 34.9
13:00 1015 29.97 844 24.92 28.9 84.1 18 2.3 36.2
13:05 1014 29.94 844 24.92 28.9 83.9 18 2.5 36.5
13:10 1014 29.94 844 24.92 29 84.3 17 1.6 35
13:15 1014 29.94 843 24.89 30 86 15 1 33.8
13:20 1014 29.94 843 24.89 30.2 86.3 15 1.3 34.3
13:25 1014 29.94 843 24.89 30 86 18 3.5 38.3
13:30 1014 29.94 843 24.89 28.5 83.2 23 5.7 42.3
13:35 1014 29.94 843 24.89 27.5 81.4 26 6.4 43.5
13:40 1014 29.94 843 24.89 25.8 78.4 27 5.5 41.9
13:45 1014 29.94 843 24.89 25.4 77.7 26 4.5 40.2
13:50 1014 29.94 844 24.92 25.3 77.6 26 5 40.9
13:55 1015 29.97 844 24.92 25.3 77.5 28 5.8 42.5
14:00 1015 29.97 844 24.92 25.4 77.6 29 6.5 43.6
14:05 1015 29.97 844 24.92 25.4 77.6 31 7.2 44.9
14:10 1015 29.97 845 24.95 24.3 75.7 32 6.6 43.9
14:15 1015 29.97 845 24.95 22.8 73 34 6.5 43.7
14:20 1016 30 845 24.95 21.8 71.2 39 7.2 45
14:25 1016 30 845 24.95 20.8 69.4 44 8.3 46.9
14:30 1017 30.03 846 24.98 20.1 68.2 55 10.8 51.4
14:35 1017 30.03 847 25.01 18.7 65.7 64 11.8 53.2
14:40 1018 30.06 847 25.01 17.9 64.3 69 12.3 54.1
14:45 1018 30.06 847 25.01 17.6 63.8 67 11.6 52.9
14:50 1018 30.06 847 25.01 17.6 63.8 65 11.2 52.1
14:55 1018 30.06 847 25.01 17.6 63.7 66 11.2 52.2
15:00 1018 30.06 847 25.01 16.9 62.5 76 12.7 54.8
15:05 1018 30.06 847 25.01 16.1 60.9 75 11.8 53.2
15:10 1018 30.06 847 25.01 15.8 60.5 77 11.8 53.3
15:15 1017 30.03 847 25.01 15.7 60.2 77 11.7 53
15:20 1017 30.03 847 25.01 15.9 60.6 74 11.3 52.3
15:25 1017 30.03 846 24.98 16.1 61 71 10.9 51.6
15:30 1017 30.03 846 24.98 16.4 61.6 65 9.9 49.8
15:35 1017 30.03 846 24.98 17 62.6 65 10.4 50.8
15:40 1017 30.03 846 24.98 17.5 63.5 71 12.2 54
15:45 1017 30.03 846 24.98 17.5 63.5 69 11.8 53.2
15:50 1017 30.03 846 24.98 17.5 63.4 66 11.1 52.1
15:55 1017 30.03 846 24.98 17.7 63.8 66 11.4 52.4
16:00 1017 30.03 846 24.98 17.8 64 63 10.7 51.2
16:05 1016 30 846 24.98 17.8 64.1 62 10.4 50.8
16:10 1016 30 846 24.98 17.9 64.1 61 10.3 50.5
16:15 1016 30 845 24.95 17.7 63.8 61 10.2 50.3
16:20 1016 30 845 24.95 17.8 64 61 10.2 50.4
16:25 1016 30 845 24.95 17.9 64.3 60 10.2 50.4
16:30 1016 30 845 24.95 18.1 64.6 61 10.4 50.8
16:35 1016 30 845 24.95 18.3 65 59 10.4 50.7
16:40 1016 30 845 24.95 18.4 65.1 60 10.6 51.2
16:45 1016 30 845 24.95 18.4 65.1 62 11.1 51.9
16:50 1016 30 845 24.95 18.5 65.4 63 11.5 52.7
16:55 1016 30 845 24.95 18.7 65.7 61 11.2 52.2
17:00 1016 30 845 24.95 18.8 65.9 60 11.1 52
17:05 1016 30 845 24.95 19.1 66.3 59 10.9 51.6
17:10 1015 29.97 845 24.95 19.5 67.1 57 10.8 51.5
17:15 1015 29.97 844 24.92 19.8 67.6 54 10.2 50.4
17:20 1015 29.97 844 24.92 20 67.9 52 10.1 50.1
17:25 1015 29.97 844 24.92 20.2 68.4 51 9.8 49.6
17:30 1015 29.97 844 24.92 20.5 69 49 9.6 49.3
17:35 1015 29.97 844 24.92 20.7 69.3 49 9.7 49.4
17:40 1015 29.97 844 24.92 20.8 69.5 49 9.8 49.7
17:45 1015 29.97 844 24.92 20.9 69.7 46 9.1 48.3
17:50 1015 29.97 844 24.92 21.1 70 47 9.4 48.9
17:55 1015 29.97 844 24.92 21.1 70 47 9.5 49
18:00 1015 29.97 844 24.92 21.1 70.1 47 9.5 49.1
18:05 1015 29.97 844 24.92 21.5 70.8 45 9.1 48.4
18:10 1015 29.97 844 24.92 21.4 70.5 44 8.9 48
18:15 1015 29.97 844 24.92 21.5 70.7 44 8.9 48
18:20 1015 29.97 844 24.92 21.5 70.7 45 9.1 48.3
18:25 1015 29.97 844 24.92 21.2 70.2 45 8.9 48
18:30 1015 29.97 844 24.92 21.2 70.2 45 9 48.3
18:35 1015 29.97 844 24.92 21.3 70.3 45 9 48.3
18:40 1015 29.97 844 24.92 21.3 70.3 45 9.1 48.3
18:45 1015 29.97 844 24.92 21.3 70.4 45 9.1 48.4
18:50 1015 29.97 844 24.92 21.3 70.3 45 9.1 48.3
18:55 1014 29.94 844 24.92 21.3 70.3 45 9.2 48.5
19:00 1014 29.94 844 24.92 21.2 70.1 47 9.5 49.2
19:05 1014 29.94 844 24.92 21.1 70 47 9.6 49.2
19:10 1014 29.94 844 24.92 21 69.9 47 9.4 49
19:15 1014 29.94 844 24.92 21.1 70 48 9.9 49.8
19:20 1014 29.94 844 24.92 21.1 70 49 10.1 50.2
19:25 1014 29.94 844 24.92 21.1 70 49 10 49.9
19:30 1014 29.94 844 24.92 21 69.8 50 10.3 50.5
19:35 1015 29.97 844 24.92 20.9 69.6 49 10.1 50.2
19:40 1015 29.97 844 24.92 20.8 69.5 48 9.6 49.4
19:45 1015 29.97 844 24.92 20.7 69.2 47 9.3 48.7
19:50 1015 29.97 844 24.92 20.6 69 48 9.4 48.9
19:55 1015 29.97 844 24.92 20.4 68.7 48 9.3 48.7
20:00 1015 29.97 844 24.92 20.3 68.6 48 9.2 48.5
20:05 1015 29.97 844 24.92 20.2 68.3 48 8.9 48
20:10 1015 29.97 844 24.92 20 68.1 46 8.2 46.8
20:15 1015 29.97 844 24.92 19.9 67.8 47 8.3 47
20:20 1015 29.97 844 24.92 19.6 67.3 47 8.2 46.8
20:25 1015 29.97 844 24.92 19.4 66.9 49 8.4 47.2
20:30 1015 29.97 844 24.92 19.1 66.4 49 8.3 47
20:35 1015 29.97 844 24.92 19 66.1 48 7.9 46.3
20:40 1015 29.97 844 24.92 18.9 66 47 7.6 45.6
20:45 1015 29.97 844 24.92 19 66.2 46 7.4 45.3
20:50 1015 29.97 844 24.92 19.1 66.4 47 7.5 45.6
20:55 1015 29.97 844 24.92 19 66.2 49 8.2 46.7
21:00 1015 29.97 844 24.92 18.5 65.2 50 8.1 46.5
21:05 1015 29.97 844 24.92 18.4 65.2 51 8.3 46.9
21:10 1015 29.97 844 24.92 18.3 64.9 52 8.5 47.2
21:15 1015 29.97 844 24.92 18.2 64.7 54 8.8 47.9
21:20 1015 29.97 844 24.92 18 64.4 55 8.9 48
21:25 1015 29.97 844 24.92 17.9 64.3 54 8.5 47.3
21:30 1015 29.97 844 24.92 17.9 64.2 53 8.3 46.9
21:35 1015 29.97 844 24.92 17.9 64.2 52 8.1 46.6
21:40 1015 29.97 844 24.92 17.9 64.1 51 7.6 45.7
21:45 1015 29.97 844 24.92 17.8 64.1 50 7.5 45.4
21:50 1015 29.97 844 24.92 17.8 64 50 7.3 45.1
21:55 1015 29.97 844 24.92 17.6 63.8 50 7.3 45.2
22:00 1015 29.97 844 24.92 17.4 63.4 52 7.5 45.5
22:05 1015 29.97 844 24.92 17.1 62.7 53 7.6 45.7
22:10 1015 29.97 844 24.92 16.9 62.4 52 7.2 44.9
22:15 1015 29.97 844 24.92 17.1 62.8 52 7.3 45.1
22:20 1015 29.97 844 24.92 17.4 63.3 49 6.8 44.3
22:25 1015 29.97 844 24.92 17.5 63.6 51 7.3 45.1
22:30 1015 29.97 844 24.92 17.4 63.2 51 7.2 44.9
22:35 1015 29.97 844 24.92 17.1 62.8 52 7.4 45.3
22:40 1015 29.97 844 24.92 16.6 61.9 55 7.5 45.5
22:45 1014 29.94 844 24.92 16.3 61.3 55 7.2 45
22:50 1015 29.97 844 24.92 16.3 61.3 52 6.6 43.9
22:55 1015 29.97 844 24.92 16.7 62 52 6.8 44.2
23:00 1014 29.94 844 24.92 16.8 62.2 51 6.8 44.2
23:05 1014 29.94 844 24.92 16.9 62.3 51 6.8 44.3
23:10 1014 29.94 844 24.92 16.8 62.3 51 6.8 44.3
23:15 1015 29.97 844 24.92 16.9 62.5 51 6.8 44.2
23:20 1014 29.94 844 24.92 16.9 62.4 52 7 44.5
23:25 1014 29.94 844 24.92 16.7 62.1 52 6.8 44.3
23:30 1014 29.94 844 24.92 16.7 62.1 52 6.9 44.4
23:35 1014 29.94 844 24.92 16.7 62 52 6.8 44.2
23:40 1014 29.94 844 24.92 16.6 61.9 52 6.7 44.1
23:45 1014 29.94 844 24.92 16.6 61.9 52 6.7 44.1
23:50 1014 29.94 844 24.92 16.6 61.9 52 6.8 44.3
23:55 1014 29.94 844 24.92 16.5 61.7 52 6.7 44
24:00 1014 29.94 844 24.92 16.3 61.4 52 6.5 43.6